Time;durP1;ratioP1;P1;durP2;ratioP2;P2;SDS_P1;SDS_P2;PMS_P1;PMS_P2;Temp;Humidity;BMP_temperature;BMP_pressure;BME280_temperature;BME280_humidity;BME280_pressure;Samples;Min_cycle;Max_cycle;Signal;HPM_P1;HPM_P2
2023/12/10 00:01:46;;;;;;;31.55;6.35;;;;;;;7.99;100.00;99841.16;5054845;28;20025;-59
2023/12/10 00:04:11;;;;;;;37.25;7.05;;;;;;;8.00;100.00;99836.75;5057480;28;20114;-59
2023/12/10 00:06:36;;;;;;;35.25;6.43;;;;;;;8.00;100.00;99834.91;5055376;28;20033;-58
2023/12/10 00:09:02;;;;;;;30.83;6.68;;;;;;;8.00;100.00;99837.56;5054621;28;20029;-58
2023/12/10 00:11:27;;;;;;;30.25;6.47;;;;;;;8.02;100.00;99848.84;5052801;28;20059;-59
2023/12/10 00:13:53;;;;;;;31.33;6.55;;;;;;;8.04;100.00;99833.69;5055846;28;20060;-59
2023/12/10 00:16:18;;;;;;;24.73;5.25;;;;;;;8.04;100.00;99840.78;5052804;28;20424;-59
2023/12/10 00:18:44;;;;;;;32.03;6.55;;;;;;;8.08;100.00;99836.94;5054533;28;20071;-59
2023/12/10 00:21:12;;;;;;;34.80;6.07;;;;;;;8.09;100.00;99843.91;5051184;28;20033;-58
2023/12/10 00:23:37;;;;;;;32.57;6.37;;;;;;;8.13;100.00;99855.91;5051467;28;20032;-59
2023/12/10 00:26:03;;;;;;;31.38;6.38;;;;;;;8.12;100.00;99855.06;5057447;28;20100;-59
2023/12/10 00:28:28;;;;;;;38.00;7.40;;;;;;;8.15;100.00;99853.97;5056430;28;20035;-58
2023/12/10 00:30:54;;;;;;;29.08;6.35;;;;;;;8.18;100.00;99871.38;5053468;28;20051;-59
2023/12/10 00:33:19;;;;;;;30.15;6.05;;;;;;;8.18;100.00;99879.31;5053706;28;20025;-58
2023/12/10 00:35:45;;;;;;;28.48;6.28;;;;;;;8.15;100.00;99870.69;5051608;28;20029;-58
2023/12/10 00:38:10;;;;;;;26.38;6.30;;;;;;;8.15;100.00;99872.50;5053004;28;20021;-57
2023/12/10 00:40:36;;;;;;;31.70;6.82;;;;;;;8.15;100.00;99885.72;5053622;28;20094;-58
2023/12/10 00:43:01;;;;;;;31.85;6.97;;;;;;;8.12;100.00;99878.03;5053602;28;20378;-58
2023/12/10 00:45:26;;;;;;;24.83;5.55;;;;;;;8.10;100.00;99878.16;5050685;28;20044;-58
2023/12/10 00:47:52;;;;;;;29.77;5.78;;;;;;;8.11;100.00;99881.63;5047616;28;20041;-58
2023/12/10 00:50:18;;;;;;;31.00;6.20;;;;;;;8.10;100.00;99872.03;5051892;28;20382;-58
2023/12/10 00:52:43;;;;;;;23.33;5.15;;;;;;;8.10;100.00;99864.94;5051696;28;20037;-59
2023/12/10 00:55:10;;;;;;;26.02;5.10;;;;;;;8.10;100.00;99887.91;5054532;28;20064;-58
2023/12/10 00:57:35;;;;;;;29.65;5.97;;;;;;;8.10;100.00;99898.47;5051816;28;20111;-59
2023/12/10 01:00:00;;;;;;;24.13;5.32;;;;;;;8.08;100.00;99897.78;5053631;28;20370;-59
2023/12/10 01:02:26;;;;;;;25.75;6.20;;;;;;;8.07;100.00;99896.09;5051898;28;20033;-59
2023/12/10 01:04:51;;;;;;;30.42;5.80;;;;;;;8.06;100.00;99907.63;5050169;28;20538;-59
2023/12/10 01:07:17;;;;;;;30.60;5.80;;;;;;;8.04;100.00;99909.56;5049733;28;20033;-59
2023/12/10 01:09:42;;;;;;;24.25;5.28;;;;;;;8.04;100.00;99905.09;5053398;28;20035;-59
2023/12/10 01:12:08;;;;;;;28.83;5.35;;;;;;;8.03;100.00;99903.44;5053599;28;20040;-59
2023/12/10 01:14:33;;;;;;;28.95;5.80;;;;;;;7.99;100.00;99906.44;5053478;28;20024;-59
2023/12/10 01:16:59;;;;;;;22.13;5.32;;;;;;;7.97;100.00;99899.47;5052613;28;20033;-59
2023/12/10 01:19:26;;;;;;;29.35;5.80;;;;;;;7.94;100.00;99904.16;5053471;28;20107;-59
2023/12/10 01:21:51;;;;;;;27.60;5.47;;;;;;;7.94;100.00;99905.03;5053629;28;20048;-59
2023/12/10 01:24:19;;;;;;;24.00;5.72;;;;;;;7.93;100.00;99907.78;5051645;28;20033;-59
2023/12/10 01:26:44;;;;;;;24.67;5.63;;;;;;;7.94;100.00;99907.66;5052541;28;20032;-59
2023/12/10 01:29:10;;;;;;;24.80;5.45;;;;;;;7.94;100.00;99918.25;5052477;28;20478;-60
2023/12/10 01:31:35;;;;;;;28.48;5.47;;;;;;;7.94;100.00;99923.53;5054450;28;20021;-59
2023/12/10 01:34:02;;;;;;;25.15;5.70;;;;;;;7.96;100.00;99937.47;5057692;28;20041;-59
2023/12/10 01:36:27;;;;;;;32.92;6.30;;;;;;;7.98;100.00;99924.13;5058843;28;20044;-59
2023/12/10 01:38:53;;;;;;;25.73;5.97;;;;;;;7.99;100.00;99949.59;5057693;28;20029;-59
2023/12/10 01:41:18;;;;;;;25.02;5.10;;;;;;;8.00;100.00;99951.28;5060245;28;20043;-59
2023/12/10 01:43:44;;;;;;;24.33;5.55;;;;;;;7.99;100.00;99954.03;5052566;28;20029;-60
2023/12/10 01:46:10;;;;;;;24.63;4.60;;;;;;;7.99;100.00;99946.09;5057845;28;20397;-60
2023/12/10 01:48:39;;;;;;;22.08;4.95;;;;;;;7.94;100.00;99951.75;5056611;28;20037;-60
2023/12/10 01:51:05;;;;;;;29.27;5.73;;;;;;;7.95;100.00;99961.38;5053574;28;20389;-60
2023/12/10 01:53:30;;;;;;;29.70;6.22;;;;;;;7.90;100.00;99968.84;5056804;28;20366;-60
2023/12/10 01:55:56;;;;;;;25.90;4.78;;;;;;;7.89;100.00;99965.38;5056018;28;20060;-61
2023/12/10 01:58:23;;;;;;;22.63;4.45;;;;;;;7.83;100.00;99970.28;5057018;28;20032;-60
2023/12/10 02:00:49;;;;;;;17.77;5.00;;;;;;;7.82;100.00;99964.16;5056621;28;20398;-61
2023/12/10 02:03:15;;;;;;;28.40;5.18;;;;;;;7.78;100.00;99968.84;5055173;28;20037;-60
2023/12/10 02:05:40;;;;;;;27.50;4.93;;;;;;;7.75;100.00;99977.00;5054449;28;20436;-61
2023/12/10 02:08:05;;;;;;;26.00;4.95;;;;;;;7.73;100.00;99971.00;5054576;28;20040;-60
2023/12/10 02:10:31;;;;;;;25.15;4.55;;;;;;;7.70;100.00;99967.78;5054108;28;20025;-60
2023/12/10 02:12:57;;;;;;;24.17;5.82;;;;;;;7.65;100.00;99965.50;5055361;28;20025;-60
2023/12/10 02:15:22;;;;;;;23.67;4.85;;;;;;;7.62;100.00;99972.81;5046615;28;20029;-61
2023/12/10 02:17:49;;;;;;;21.08;4.65;;;;;;;7.58;100.00;99962.47;5055359;28;20028;-60
2023/12/10 02:20:16;;;;;;;22.95;4.72;;;;;;;7.54;100.00;99960.19;5056113;28;20115;-60
2023/12/10 02:22:55;;;;;;;26.42;5.10;;;;;;;7.54;100.00;99961.06;5055325;28;20032;-60
2023/12/10 02:25:33;;;;;;;19.27;4.13;;;;;;;7.55;100.00;99978.56;5054817;28;20041;-59
2023/12/10 02:28:00;;;;;;;25.23;5.13;;;;;;;7.49;100.00;99984.31;5057200;28;20093;-60
2023/12/10 02:30:25;;;;;;;20.40;4.80;;;;;;;7.49;100.00;99970.28;5055010;28;20069;-59
2023/12/10 02:32:51;;;;;;;24.58;4.85;;;;;;;7.49;100.00;99971.13;5054468;28;20037;-59
2023/12/10 02:35:16;;;;;;;23.83;4.85;;;;;;;7.53;100.00;99983.16;5054872;28;20078;-59
2023/12/10 02:37:41;;;;;;;23.02;4.93;;;;;;;7.54;100.00;99991.91;5055504;28;20024;-59
2023/12/10 02:40:08;;;;;;;22.20;5.32;;;;;;;7.58;100.00;99988.09;5054319;28;20499;-58
2023/12/10 02:42:33;;;;;;;28.35;5.25;;;;;;;7.57;100.00;99989.03;5055271;28;20025;-59
2023/12/10 02:44:58;;;;;;;21.13;5.00;;;;;;;7.65;100.00;99988.44;5055034;28;20028;-59
2023/12/10 02:47:24;;;;;;;24.33;4.75;;;;;;;7.61;100.00;99982.56;5056015;28;20041;-59
2023/12/10 02:49:49;;;;;;;22.27;4.82;;;;;;;7.60;100.00;99992.28;5053714;28;20028;-59
2023/12/10 02:52:14;;;;;;;22.75;4.60;;;;;;;7.62;100.00;99997.44;5058103;28;20096;-59
2023/12/10 02:54:40;;;;;;;21.88;5.15;;;;;;;7.65;100.00;100004.31;5056857;28;20046;-59
2023/12/10 02:57:05;;;;;;;18.88;5.03;;;;;;;7.67;100.00;99999.72;5057380;28;20110;-58
2023/12/10 02:59:30;;;;;;;22.63;4.90;;;;;;;7.68;100.00;100018.13;5058293;28;20045;-59
2023/12/10 03:01:56;;;;;;;27.60;5.72;;;;;;;7.70;100.00;100004.78;5057498;28;20044;-60
2023/12/10 03:04:21;;;;;;;22.75;4.75;;;;;;;7.69;100.00;100000.44;5058775;28;20032;-58
2023/12/10 03:06:46;;;;;;;24.65;4.68;;;;;;;7.70;100.00;100012.72;5054392;28;20532;-60
2023/12/10 03:09:12;;;;;;;19.73;4.32;;;;;;;7.71;100.00;100012.59;5057603;28;20025;-59
2023/12/10 03:11:38;;;;;;;24.83;4.57;;;;;;;7.73;100.00;100009.84;5055095;28;20449;-58
2023/12/10 03:14:04;;;;;;;24.02;4.63;;;;;;;7.75;100.00;100010.53;5057606;28;20049;-59
2023/12/10 03:16:29;;;;;;;27.27;6.00;;;;;;;7.80;100.00;100012.84;5055759;28;20533;-60
2023/12/10 03:18:55;;;;;;;23.77;4.95;;;;;;;7.80;100.00;100034.81;5051938;28;20037;-60
2023/12/10 03:21:20;;;;;;;20.27;4.53;;;;;;;7.82;100.00;100032.06;5055109;28;20040;-59
2023/12/10 03:23:45;;;;;;;26.65;4.70;;;;;;;7.85;100.00;100037.09;5055509;28;20036;-60
2023/12/10 03:26:11;;;;;;;23.38;5.28;;;;;;;7.84;100.00;100038.88;5057296;28;20402;-59
2023/12/10 03:28:36;;;;;;;30.13;4.88;;;;;;;7.88;100.00;100042.16;5053643;28;20021;-59
2023/12/10 03:31:01;;;;;;;19.48;4.03;;;;;;;7.86;100.00;100044.06;5049707;28;20381;-59
2023/12/10 03:33:27;;;;;;;31.50;5.22;;;;;;;7.93;98.86;100050.56;5048861;28;20393;-59
2023/12/10 03:35:52;;;;;;;27.88;4.75;;;;;;;7.92;99.61;100055.00;5052312;28;20023;-59
2023/12/10 03:38:17;;;;;;;21.65;4.30;;;;;;;7.88;99.80;100050.09;5053710;28;20477;-59
2023/12/10 03:40:43;;;;;;;26.10;4.13;;;;;;;7.87;100.00;100057.16;5052385;28;20482;-59
2023/12/10 03:43:08;;;;;;;25.90;5.13;;;;;;;7.88;97.99;100064.16;5053479;28;20032;-59
2023/12/10 03:45:33;;;;;;;22.45;5.13;;;;;;;7.93;97.58;100061.97;5053828;28;20382;-59
2023/12/10 03:47:59;;;;;;;21.02;6.15;;;;;;;7.92;98.35;100060.28;5053437;28;20072;-58
2023/12/10 03:50:24;;;;;;;22.45;4.72;;;;;;;7.95;97.15;100080.38;5053572;28;20033;-59
2023/12/10 03:52:49;;;;;;;19.85;4.38;;;;;;;7.95;98.36;100072.44;5054823;28;20579;-59
2023/12/10 03:55:17;;;;;;;25.02;5.05;;;;;;;7.91;98.63;100069.19;5057505;28;20036;-59
2023/12/10 03:57:42;;;;;;;20.75;4.50;;;;;;;7.93;97.66;100066.44;5057404;28;20037;-59
2023/12/10 04:00:08;;;;;;;23.40;5.50;;;;;;;7.99;96.55;100075.69;5045298;28;20203;-59
2023/12/10 04:02:33;;;;;;;19.08;4.38;;;;;;;8.02;94.65;100086.84;5055756;28;20584;-58
2023/12/10 04:04:58;;;;;;;19.98;4.47;;;;;;;8.02;95.76;100081.56;5050981;28;20029;-59
2023/12/10 04:07:25;;;;;;;25.60;4.25;;;;;;;8.04;94.67;100097.31;5055794;28;20486;-58
2023/12/10 04:09:50;;;;;;;19.17;4.45;;;;;;;8.05;94.94;100096.38;5054534;28;20497;-58
2023/12/10 04:12:15;;;;;;;21.05;4.43;;;;;;;8.10;93.35;100089.75;5054740;28;20017;-57
2023/12/10 04:14:41;;;;;;;19.60;4.78;;;;;;;8.09;94.45;100095.16;5054146;28;20405;-59
2023/12/10 04:17:06;;;;;;;21.70;4.82;;;;;;;8.07;94.93;100097.09;5053445;28;20397;-59
2023/12/10 04:19:32;;;;;;;21.48;4.43;;;;;;;8.07;94.13;100094.44;5052961;28;20103;-59
2023/12/10 04:21:57;;;;;;;20.27;4.90;;;;;;;8.06;94.94;100095.38;5051612;28;20036;-58
2023/12/10 04:24:22;;;;;;;18.83;4.18;;;;;;;8.10;92.96;100121.47;5053691;28;20024;-58
2023/12/10 04:26:48;;;;;;;23.58;5.10;;;;;;;8.10;92.97;100096.84;5052560;28;20460;-58
2023/12/10 04:29:13;;;;;;;22.17;4.45;;;;;;;8.11;93.79;100114.38;5053246;28;20033;-58
2023/12/10 04:31:38;;;;;;;19.88;4.80;;;;;;;8.10;93.99;100107.44;5047219;28;20384;-57
2023/12/10 04:34:04;;;;;;;26.65;5.05;;;;;;;8.12;92.60;100114.25;5052179;28;20087;-55
2023/12/10 04:36:29;;;;;;;19.77;4.75;;;;;;;8.12;92.72;100132.78;5052932;28;20017;-56
2023/12/10 04:38:55;;;;;;;22.48;4.97;;;;;;;8.14;93.08;100128.22;5050988;28;20120;-58
2023/12/10 04:41:21;;;;;;;20.85;5.10;;;;;;;8.15;93.14;100131.72;5048621;28;20478;-58
2023/12/10 04:43:48;;;;;;;19.27;4.30;;;;;;;8.12;92.94;100146.00;5053633;28;20021;-57
2023/12/10 04:46:13;;;;;;;23.38;4.45;;;;;;;8.15;92.79;100132.53;5051150;28;20029;-56
2023/12/10 04:48:39;;;;;;;21.88;4.25;;;;;;;8.15;92.65;100140.47;5049869;28;20186;-58
2023/12/10 04:51:04;;;;;;;18.55;4.25;;;;;;;8.21;91.05;100154.19;5053173;28;20051;-58
2023/12/10 04:53:30;;;;;;;22.83;4.88;;;;;;;8.21;91.87;100146.25;5052158;28;20025;-58
2023/12/10 04:55:55;;;;;;;17.15;4.07;;;;;;;8.27;90.93;100159.84;5052354;28;20029;-58
2023/12/10 04:58:20;;;;;;;24.67;4.10;;;;;;;8.32;90.30;100159.50;5048702;28;20036;-56
2023/12/10 05:00:46;;;;;;;19.05;4.32;;;;;;;8.29;90.71;100168.53;5052005;28;20064;-57
2023/12/10 05:03:11;;;;;;;21.98;4.85;;;;;;;8.30;90.66;100174.66;5048932;28;20040;-57
2023/12/10 05:05:36;;;;;;;22.08;4.45;;;;;;;8.30;90.89;100178.13;5052279;28;20028;-55
2023/12/10 05:08:02;;;;;;;17.17;4.38;;;;;;;8.31;91.40;100177.19;5053469;28;20064;-58
2023/12/10 05:10:28;;;;;;;20.95;4.63;;;;;;;8.30;91.56;100201.94;5055175;28;20460;-57
2023/12/10 05:12:53;;;;;;;18.77;4.28;;;;;;;8.27;91.22;100202.16;5052664;28;20116;-58
2023/12/10 05:15:18;;;;;;;16.20;4.05;;;;;;;8.29;91.02;100216.16;5053216;28;20098;-58
2023/12/10 05:17:44;;;;;;;22.75;4.53;;;;;;;8.27;91.21;100202.16;5055436;28;20472;-58
2023/12/10 05:20:09;;;;;;;18.92;4.18;;;;;;;8.29;90.52;100218.78;5053540;28;20033;-58
2023/12/10 05:22:35;;;;;;;23.15;5.15;;;;;;;8.34;89.82;100206.06;5054696;28;20029;-57
2023/12/10 05:25:00;;;;;;;23.05;4.65;;;;;;;8.31;90.44;100208.94;5058680;28;20041;-58
2023/12/10 05:27:26;;;;;;;20.77;4.63;;;;;;;8.33;90.03;100224.69;5054803;28;20033;-58
2023/12/10 05:29:51;;;;;;;22.05;4.32;;;;;;;8.37;89.13;100225.28;5047579;28;20025;-58
2023/12/10 05:32:16;;;;;;;20.92;4.57;;;;;;;8.30;90.09;100220.47;5054507;28;20021;-57
2023/12/10 05:34:42;;;;;;;21.63;4.57;;;;;;;8.34;90.58;100227.22;5053813;28;20111;-57
2023/12/10 05:37:07;;;;;;;19.10;4.40;;;;;;;8.34;89.90;100235.16;5053394;28;20059;-58
2023/12/10 05:39:33;;;;;;;18.13;4.63;;;;;;;8.33;90.49;100265.22;5048321;28;20033;-58
2023/12/10 05:41:58;;;;;;;22.73;4.75;;;;;;;8.34;89.37;100260.75;5055454;28;20107;-58
2023/12/10 05:44:23;;;;;;;26.45;4.72;;;;;;;8.31;89.35;100261.84;5058279;28;20025;-58
2023/12/10 05:46:49;;;;;;;21.90;4.18;;;;;;;8.36;89.31;100280.03;5051406;28;20442;-56
2023/12/10 05:49:14;;;;;;;21.02;4.80;;;;;;;8.36;89.88;100255.34;5053024;28;20461;-56
2023/12/10 05:51:39;;;;;;;25.95;4.60;;;;;;;8.35;89.54;100267.75;5056714;28;20051;-59
2023/12/10 05:54:05;;;;;;;20.52;4.50;;;;;;;8.33;90.10;100270.50;5054988;28;20017;-58
2023/12/10 05:56:30;;;;;;;19.63;4.30;;;;;;;8.36;89.59;100282.66;5053973;28;20397;-57
2023/12/10 05:58:55;;;;;;;24.02;4.97;;;;;;;8.34;90.10;100276.63;5054264;28;20025;-57
2023/12/10 06:01:21;;;;;;;22.90;4.47;;;;;;;8.38;89.15;100283.38;5054346;28;20033;-57
2023/12/10 06:03:46;;;;;;;20.13;4.80;;;;;;;8.39;89.02;100289.50;5053894;28;20041;-58
2023/12/10 06:06:12;;;;;;;25.13;5.10;;;;;;;8.38;89.49;100293.13;5053960;28;20056;-58
2023/12/10 06:08:37;;;;;;;21.25;4.13;;;;;;;8.38;89.06;100298.44;5053821;28;20040;-57
2023/12/10 06:11:03;;;;;;;21.00;4.78;;;;;;;8.38;89.92;100309.03;5055096;28;20104;-57
2023/12/10 06:13:28;;;;;;;24.17;4.50;;;;;;;8.38;89.45;100309.03;5053061;28;20493;-57
2023/12/10 06:15:56;;;;;;;21.73;4.32;;;;;;;8.36;90.85;100321.50;5056167;28;20108;-57
2023/12/10 06:18:21;;;;;;;18.15;4.45;;;;;;;8.39;89.95;100300.94;5051885;28;20025;-57
2023/12/10 06:20:47;;;;;;;21.40;4.95;;;;;;;8.39;89.50;100315.97;5054592;28;20155;-58
2023/12/10 06:23:12;;;;;;;22.67;5.10;;;;;;;8.39;90.26;100318.63;5056070;28;20033;-58
2023/12/10 06:25:37;;;;;;;27.38;5.30;;;;;;;8.39;89.74;100326.56;5051915;28;20103;-58
2023/12/10 06:28:03;;;;;;;21.05;4.60;;;;;;;8.40;89.71;100344.97;5055658;28;20033;-57
2023/12/10 06:30:28;;;;;;;17.20;4.15;;;;;;;8.40;89.35;100344.97;5054710;28;20033;-58
2023/12/10 06:32:54;;;;;;;23.58;4.80;;;;;;;8.41;89.61;100359.91;5053533;28;20024;-58
2023/12/10 06:35:19;;;;;;;24.58;5.07;;;;;;;8.41;89.28;100348.44;5054349;28;20040;-58
2023/12/10 06:37:44;;;;;;;17.85;4.50;;;;;;;8.39;89.77;100367.09;5053440;28;20021;-58
2023/12/10 06:40:10;;;;;;;22.27;4.78;;;;;;;8.41;90.19;100366.97;5052178;28;20036;-58
2023/12/10 06:42:36;;;;;;;24.33;5.43;;;;;;;8.40;91.36;100362.66;5050281;28;20136;-57
2023/12/10 06:45:03;;;;;;;23.08;4.40;;;;;;;8.39;90.47;100360.97;5052306;28;20017;-59
2023/12/10 06:47:28;;;;;;;22.08;4.60;;;;;;;8.39;90.89;100385.63;5052807;28;20049;-58
2023/12/10 06:49:54;;;;;;;22.55;4.82;;;;;;;8.38;90.60;100383.94;5053982;28;20474;-58
2023/12/10 06:52:19;;;;;;;19.48;5.10;;;;;;;8.44;89.63;100387.97;5054559;28;20551;-59
2023/12/10 06:54:44;;;;;;;26.08;5.00;;;;;;;8.40;90.26;100407.66;5052814;28;20040;-58
2023/12/10 06:57:10;;;;;;;28.83;5.30;;;;;;;8.43;89.71;100404.81;5050852;28;20025;-58
2023/12/10 06:59:36;;;;;;;25.13;4.88;;;;;;;8.43;90.18;100413.59;5052228;28;20147;-58
2023/12/10 07:02:01;;;;;;;23.50;4.93;;;;;;;8.45;89.28;100421.41;5053112;28;20032;-57
2023/12/10 07:04:27;;;;;;;21.55;4.95;;;;;;;8.44;89.96;100422.34;5049414;28;20033;-59
2023/12/10 07:06:52;;;;;;;26.30;4.93;;;;;;;8.44;89.65;100417.06;5049453;28;20021;-58
2023/12/10 07:09:17;;;;;;;19.27;4.75;;;;;;;8.45;89.27;100426.72;5051491;28;20033;-57
2023/12/10 07:11:43;;;;;;;23.55;5.00;;;;;;;8.46;89.12;100425.72;5052978;28;20032;-57
2023/12/10 07:14:08;;;;;;;27.65;4.97;;;;;;;8.46;89.26;100425.72;5048850;28;20037;-60
2023/12/10 07:16:33;;;;;;;22.33;4.85;;;;;;;8.47;88.48;100424.78;5051408;28;20064;-58
2023/12/10 07:18:59;;;;;;;21.08;4.78;;;;;;;8.46;88.01;100431.88;5052119;28;20378;-58
2023/12/10 07:21:24;;;;;;;23.17;4.70;;;;;;;8.44;88.74;100428.53;5048462;28;20120;-58
2023/12/10 07:23:49;;;;;;;20.98;4.68;;;;;;;8.45;88.33;100446.06;5048884;28;20021;-59
2023/12/10 07:26:21;;;;;;;24.40;4.93;;;;;;;8.40;88.77;100458.75;5052142;28;20037;-59
2023/12/10 07:28:47;;;;;;;20.10;4.20;;;;;;;8.38;88.62;100462.50;5052388;28;20025;-59
2023/12/10 07:31:12;;;;;;;19.20;4.50;;;;;;;8.36;87.76;100475.84;5046292;28;20043;-59
2023/12/10 07:33:37;;;;;;;21.35;4.53;;;;;;;8.30;88.94;100463.88;5052204;28;20025;-58
2023/12/10 07:36:03;;;;;;;25.63;4.60;;;;;;;8.26;89.62;100480.09;5049098;28;20044;-58
2023/12/10 07:38:28;;;;;;;23.58;4.75;;;;;;;8.22;89.66;100492.69;5052243;28;20363;-59
2023/12/10 07:40:53;;;;;;;17.20;4.43;;;;;;;8.19;89.87;100489.44;5051784;28;20095;-59
2023/12/10 07:43:19;;;;;;;19.75;4.35;;;;;;;8.14;90.90;100484.47;5054053;28;20021;-59
2023/12/10 07:45:44;;;;;;;23.23;4.95;;;;;;;8.10;91.07;100485.66;5052599;28;20628;-59
2023/12/10 07:48:10;;;;;;;23.02;5.22;;;;;;;8.05;92.58;100504.50;5057949;28;20136;-59
2023/12/10 07:50:35;;;;;;;26.38;5.15;;;;;;;8.04;93.13;100504.59;5057233;28;20021;-59
2023/12/10 07:53:00;;;;;;;26.50;4.97;;;;;;;8.01;92.67;100518.03;5054794;28;20143;-60
2023/12/10 07:55:26;;;;;;;22.63;4.60;;;;;;;8.02;93.02;100530.31;5057412;28;20090;-59
2023/12/10 07:57:51;;;;;;;25.35;5.20;;;;;;;8.01;93.43;100518.91;5056055;28;20028;-60
2023/12/10 08:00:17;;;;;;;28.42;5.00;;;;;;;8.00;93.89;100517.22;5048942;28;21041;-59
2023/12/10 08:02:42;;;;;;;26.80;5.68;;;;;;;7.97;95.25;100531.47;5055196;28;20087;-59
2023/12/10 08:05:08;;;;;;;21.58;4.65;;;;;;;7.97;95.43;100528.00;5053839;28;20033;-59
2023/12/10 08:07:33;;;;;;;25.20;4.80;;;;;;;7.95;95.77;100533.41;5053119;28;20032;-59
2023/12/10 08:09:59;;;;;;;22.17;4.82;;;;;;;7.94;96.20;100534.38;5049052;28;20037;-59
2023/12/10 08:12:24;;;;;;;18.15;4.53;;;;;;;7.93;96.63;100543.25;5053619;28;20025;-58
2023/12/10 08:14:49;;;;;;;24.48;4.50;;;;;;;7.92;96.95;100533.59;5054700;28;20033;-59
2023/12/10 08:17:15;;;;;;;26.20;5.28;;;;;;;7.92;97.46;100530.13;5053857;28;20057;-57
2023/12/10 08:19:40;;;;;;;22.38;4.63;;;;;;;7.93;97.53;100540.59;5054781;28;20036;-58
2023/12/10 08:22:06;;;;;;;27.75;4.90;;;;;;;7.93;97.46;100540.59;5050274;28;20086;-58
2023/12/10 08:24:32;;;;;;;25.33;4.65;;;;;;;7.95;97.64;100551.06;5056208;28;20490;-59
2023/12/10 08:26:58;;;;;;;24.45;4.80;;;;;;;7.95;97.39;100557.19;5050481;28;20036;-58
2023/12/10 08:29:23;;;;;;;23.67;4.85;;;;;;;7.96;98.51;100568.66;5053043;28;20470;-58
2023/12/10 08:31:48;;;;;;;20.80;4.78;;;;;;;7.97;97.84;100570.31;5055857;28;20564;-58
2023/12/10 08:34:14;;;;;;;26.27;5.35;;;;;;;7.95;98.21;100575.72;5048741;28;20033;-59
2023/12/10 08:36:40;;;;;;;24.50;5.30;;;;;;;7.95;98.62;100581.00;5049948;28;20085;-59
2023/12/10 08:39:06;;;;;;;22.92;5.20;;;;;;;7.96;97.83;100581.88;5056247;28;20388;-59
2023/12/10 08:41:31;;;;;;;28.23;5.03;;;;;;;7.95;98.13;100583.66;5050597;28;20539;-59
2023/12/10 08:43:57;;;;;;;26.02;5.07;;;;;;;7.95;98.39;100586.28;5052171;28;20040;-59
2023/12/10 08:46:22;;;;;;;24.13;4.70;;;;;;;7.97;98.70;100583.53;5055726;28;20387;-59
2023/12/10 08:48:48;;;;;;;26.15;5.13;;;;;;;7.95;98.90;100594.22;5058727;28;20406;-59
2023/12/10 08:51:13;;;;;;;24.60;5.50;;;;;;;7.97;98.81;100602.88;5057912;28;20074;-59
2023/12/10 08:53:39;;;;;;;24.73;5.03;;;;;;;7.97;99.34;100594.94;5058683;28;20032;-59
2023/12/10 08:56:04;;;;;;;28.05;5.00;;;;;;;8.00;98.78;100595.72;5058698;28;20024;-58
2023/12/10 08:58:30;;;;;;;29.02;5.30;;;;;;;8.00;98.51;100601.84;5057351;28;20056;-59
2023/12/10 09:00:55;;;;;;;24.48;4.93;;;;;;;8.02;99.07;100599.09;5058604;28;20043;-59
2023/12/10 09:03:21;;;;;;;23.73;5.35;;;;;;;8.03;98.21;100600.81;5052240;28;20345;-59
2023/12/10 09:05:46;;;;;;;28.42;5.25;;;;;;;8.02;98.39;100614.97;5058428;28;20051;-59
2023/12/10 09:08:11;;;;;;;20.88;5.15;;;;;;;8.03;98.88;100601.63;5062305;28;20021;-59
2023/12/10 09:10:37;;;;;;;24.92;5.05;;;;;;;8.03;99.84;100603.44;5052979;28;20041;-59
2023/12/10 09:13:02;;;;;;;29.20;5.40;;;;;;;8.02;99.67;100592.00;5057148;28;20953;-59
2023/12/10 09:15:27;;;;;;;24.23;5.15;;;;;;;8.03;99.88;100609.56;5059245;28;20037;-60
2023/12/10 09:17:53;;;;;;;23.85;5.00;;;;;;;8.05;100.00;100606.81;5051742;28;20025;-59
2023/12/10 09:20:18;;;;;;;27.27;5.00;;;;;;;8.07;100.00;100612.84;5055429;28;20029;-59
2023/12/10 09:22:43;;;;;;;24.67;4.68;;;;;;;8.09;99.56;100625.03;5054140;28;20087;-59
2023/12/10 09:25:09;;;;;;;25.60;5.00;;;;;;;8.10;100.00;100623.22;5059078;28;20036;-59
2023/12/10 09:27:34;;;;;;;24.67;4.82;;;;;;;8.11;100.00;100616.94;5053242;28;20104;-60
2023/12/10 09:29:59;;;;;;;18.90;4.10;;;;;;;8.13;100.00;100617.72;5051096;28;20046;-59
2023/12/10 09:32:27;;;;;;;26.58;5.32;;;;;;;8.14;100.00;100622.03;5055780;28;20029;-59
2023/12/10 09:34:53;;;;;;;24.77;5.25;;;;;;;8.19;100.00;100621.72;5054303;28;20021;-59
2023/12/10 09:37:18;;;;;;;22.20;4.65;;;;;;;8.20;100.00;100624.25;5057814;28;20470;-60
2023/12/10 09:39:44;;;;;;;32.28;5.88;;;;;;;8.23;100.00;100625.84;5057451;28;20075;-59
2023/12/10 09:42:09;;;;;;;20.77;4.90;;;;;;;8.24;100.00;100620.44;5056698;28;20458;-59
2023/12/10 09:44:34;;;;;;;23.20;4.90;;;;;;;8.27;100.00;100628.16;5055657;28;20024;-59
2023/12/10 09:47:00;;;;;;;26.13;4.68;;;;;;;8.28;100.00;100629.03;5054477;28;20024;-60
2023/12/10 09:49:27;;;;;;;20.52;4.38;;;;;;;8.29;100.00;100626.28;5057065;28;20037;-59
2023/12/10 09:51:53;;;;;;;22.73;4.90;;;;;;;8.30;100.00;100622.66;5058845;28;20029;-59
2023/12/10 09:54:20;;;;;;;24.63;4.93;;;;;;;8.32;100.00;100623.38;5054730;28;20377;-60
2023/12/10 09:56:47;;;;;;;23.20;4.50;;;;;;;8.32;100.00;100625.19;5055006;28;20025;-60
2023/12/10 09:59:13;;;;;;;23.92;5.10;;;;;;;8.33;100.00;100626.88;5056110;28;20025;-59
2023/12/10 10:01:38;;;;;;;23.80;5.75;;;;;;;8.37;100.00;100627.50;5057689;28;20087;-59
2023/12/10 10:04:04;;;;;;;23.40;5.07;;;;;;;8.41;100.00;100628.97;5058719;28;20135;-59
2023/12/10 10:06:29;;;;;;;26.38;5.07;;;;;;;8.44;100.00;100628.78;5057993;28;20021;-59
2023/12/10 10:08:54;;;;;;;27.40;4.85;;;;;;;8.47;100.00;100625.94;5061242;28;20370;-59
2023/12/10 10:11:19;;;;;;;29.73;7.00;;;;;;;8.51;100.00;100625.63;5056602;28;20024;-60
2023/12/10 10:13:54;;;;;;;24.25;4.93;;;;;;;8.54;100.00;100621.88;5058390;28;20066;-59
2023/12/10 10:16:19;;;;;;;22.65;5.05;;;;;;;8.59;100.00;100617.09;5054901;28;20486;-58
2023/12/10 10:18:47;;;;;;;21.95;5.03;;;;;;;8.64;100.00;100617.66;5054245;28;20024;-59
2023/12/10 10:21:12;;;;;;;22.23;4.78;;;;;;;8.72;100.00;100597.69;5051139;28;20110;-59
2023/12/10 10:23:37;;;;;;;24.35;5.18;;;;;;;8.78;100.00;100595.44;5053665;28;20020;-59
2023/12/10 10:26:03;;;;;;;26.70;5.15;;;;;;;8.85;100.00;100586.09;5052286;28;20037;-59
2023/12/10 10:28:30;;;;;;;25.20;4.93;;;;;;;8.92;100.00;100593.59;5056505;28;20344;-59
2023/12/10 10:30:58;;;;;;;26.23;4.90;;;;;;;8.98;100.00;100601.94;5056015;28;20033;-58
2023/12/10 10:33:25;;;;;;;26.73;5.25;;;;;;;9.04;100.00;100604.13;5057092;28;20138;-59
2023/12/10 10:35:52;;;;;;;29.17;5.43;;;;;;;9.12;99.80;100603.53;5055111;28;20029;-59
2023/12/10 10:38:20;;;;;;;25.00;4.90;;;;;;;9.20;100.00;100610.94;5057900;28;20029;-59
2023/12/10 10:40:47;;;;;;;27.00;5.15;;;;;;;9.26;98.90;100619.28;5057567;28;20116;-59
2023/12/10 10:43:12;;;;;;;22.08;5.07;;;;;;;9.34;100.00;100612.53;5056617;28;20029;-59
2023/12/10 10:45:37;;;;;;;25.90;5.05;;;;;;;9.42;99.56;100626.06;5054624;28;20116;-59
2023/12/10 10:48:04;;;;;;;26.65;4.80;;;;;;;9.48;97.62;100616.81;5054461;28;20041;-59
2023/12/10 10:50:30;;;;;;;25.70;5.45;;;;;;;9.53;98.64;100619.97;5056017;28;20549;-59
2023/12/10 10:52:56;;;;;;;18.83;4.32;;;;;;;9.57;97.01;100614.28;5060891;28;20024;-59
2023/12/10 10:55:22;;;;;;;21.08;4.38;;;;;;;9.63;97.34;100620.94;5055846;28;20013;-59
2023/12/10 10:57:48;;;;;;;20.45;4.68;;;;;;;9.69;96.19;100609.88;5054888;28;20496;-58
2023/12/10 11:00:20;;;;;;;21.50;4.70;;;;;;;9.74;96.53;100607.72;5055570;28;20111;-58
2023/12/10 11:02:46;;;;;;;18.13;4.25;;;;;;;9.79;95.91;100616.16;5055298;28;20381;-59
2023/12/10 11:05:34;;;;;;;25.88;5.13;;;;;;;9.85;95.87;100608.69;5053403;28;20401;-59
2023/12/10 11:08:00;;;;;;;21.35;4.70;;;;;;;9.85;95.31;100608.69;5048048;28;20025;-58
2023/12/10 11:10:26;;;;;;;23.55;4.57;;;;;;;9.81;94.93;100606.28;5053564;28;20076;-59
2023/12/10 11:12:53;;;;;;;22.30;4.60;;;;;;;9.77;94.70;100611.94;5052634;28;20490;-58
2023/12/10 11:15:18;;;;;;;17.38;4.50;;;;;;;9.74;94.17;100606.84;5055237;28;20413;-58
2023/12/10 11:18:02;;;;;;;24.85;4.43;;;;;;;9.74;95.13;100596.25;5050791;28;20107;-58